createdAt,value
2019-06-15T00:00:24.265Z,18.60
2019-06-15T00:02:52.731Z,18.60
2019-06-15T00:05:21.213Z,18.60
2019-06-15T00:07:49.759Z,18.60
2019-06-15T00:10:18.206Z,18.60
2019-06-15T00:12:46.675Z,18.60
2019-06-15T00:15:16.178Z,18.60
2019-06-15T00:17:44.721Z,18.60
2019-06-15T00:20:13.443Z,18.60
2019-06-15T00:22:41.979Z,18.60
2019-06-15T00:25:10.732Z,18.60
2019-06-15T00:27:39.263Z,18.70
2019-06-15T00:30:09.642Z,18.60
2019-06-15T00:32:38.114Z,18.50
2019-06-15T00:35:08.323Z,18.30
2019-06-15T00:37:36.779Z,18.20
2019-06-15T00:40:07.051Z,18.20
2019-06-15T00:42:35.589Z,18.30
2019-06-15T00:45:05.384Z,18.30
2019-06-15T00:47:33.922Z,18.40
2019-06-15T00:50:02.471Z,18.30
2019-06-15T00:52:30.964Z,18.40
2019-06-15T00:54:59.511Z,18.50
2019-06-15T00:57:28.075Z,18.50
2019-06-15T00:59:56.598Z,18.40
2019-06-15T01:02:25.072Z,18.40
2019-06-15T01:04:53.677Z,18.30
2019-06-15T01:07:22.204Z,18.20
2019-06-15T01:09:50.668Z,18.20
2019-06-15T01:12:19.123Z,18.10
2019-06-15T01:14:47.591Z,18.00
2019-06-15T01:17:16.126Z,17.80
2019-06-15T01:19:44.583Z,17.70
2019-06-15T01:22:13.126Z,17.70
2019-06-15T01:24:41.571Z,17.80
2019-06-15T01:27:10.138Z,17.70
2019-06-15T01:29:38.589Z,17.80
2019-06-15T01:32:07.204Z,17.80
2019-06-15T01:34:35.748Z,17.80
2019-06-15T01:37:04.415Z,17.70
2019-06-15T01:39:32.955Z,17.70
2019-06-15T01:42:01.681Z,17.60
2019-06-15T01:44:30.228Z,17.60
2019-06-15T01:46:58.723Z,17.50
2019-06-15T01:49:27.274Z,17.50
2019-06-15T01:51:55.815Z,17.60
2019-06-15T01:54:24.353Z,17.70
2019-06-15T01:56:52.834Z,17.70
2019-06-15T01:59:21.292Z,17.70
2019-06-15T02:01:49.811Z,17.80
2019-06-15T02:04:18.352Z,18.10
2019-06-15T02:06:46.903Z,18.10
2019-06-15T02:09:15.379Z,18.10
2019-06-15T02:11:43.893Z,18.00
2019-06-15T02:14:12.367Z,17.90
2019-06-15T02:16:40.823Z,17.80
2019-06-15T02:19:09.379Z,17.70
2019-06-15T02:21:37.918Z,17.60
2019-06-15T02:24:06.708Z,17.60
2019-06-15T02:26:35.175Z,17.60
2019-06-15T02:29:03.699Z,17.60
2019-06-15T02:31:32.168Z,17.60
2019-06-15T02:34:00.708Z,17.60
2019-06-15T02:36:29.180Z,17.60
2019-06-15T02:38:57.642Z,17.50
2019-06-15T02:41:26.176Z,17.50
2019-06-15T02:43:54.628Z,17.50
2019-06-15T02:46:26.299Z,17.40
2019-06-15T02:48:53.507Z,17.40
2019-06-15T02:51:22.265Z,17.40
2019-06-15T02:53:51.032Z,17.40
2019-06-15T02:56:19.562Z,17.50
2019-06-15T02:58:48.063Z,17.30
2019-06-15T03:01:16.578Z,17.30
2019-06-15T03:03:45.190Z,17.40
2019-06-15T03:06:13.783Z,17.40
2019-06-15T03:08:42.396Z,17.40
2019-06-15T03:11:10.942Z,17.40
2019-06-15T03:13:39.402Z,17.30
2019-06-15T03:16:07.931Z,17.40
2019-06-15T03:18:36.388Z,17.40
2019-06-15T03:21:04.952Z,17.50
2019-06-15T03:23:33.403Z,17.50
2019-06-15T03:26:05.427Z,17.60
2019-06-15T03:28:32.053Z,17.60
2019-06-15T03:31:00.499Z,17.70
2019-06-15T03:33:28.978Z,17.70
2019-06-15T03:35:57.494Z,17.70
2019-06-15T03:38:25.982Z,17.70
2019-06-15T03:40:54.436Z,17.70
2019-06-15T03:43:22.886Z,17.70
2019-06-15T03:45:51.435Z,17.70
2019-06-15T03:48:19.963Z,17.70
2019-06-15T03:50:48.570Z,17.70
2019-06-15T03:53:17.122Z,17.70
2019-06-15T03:55:45.572Z,17.70
2019-06-15T03:58:14.211Z,17.70
2019-06-15T04:00:48.588Z,17.60
2019-06-15T04:03:17.144Z,17.60
2019-06-15T04:05:45.846Z,17.60
2019-06-15T04:08:14.434Z,17.60
2019-06-15T04:10:42.912Z,17.60
2019-06-15T04:13:11.443Z,17.80
2019-06-15T04:15:39.896Z,17.80
2019-06-15T04:18:08.432Z,17.90
2019-06-15T04:20:36.904Z,18.00
2019-06-15T04:23:05.425Z,18.20
2019-06-15T04:25:33.887Z,18.30
2019-06-15T04:28:02.408Z,18.40
2019-06-15T04:30:30.971Z,18.50
2019-06-15T04:32:59.486Z,18.40
2019-06-15T04:35:27.930Z,18.50
2019-06-15T04:37:56.467Z,18.60
2019-06-15T04:40:24.923Z,18.60
2019-06-15T04:42:53.463Z,18.60
2019-06-15T04:45:21.912Z,18.70
2019-06-15T04:47:50.383Z,18.80
2019-06-15T04:50:18.990Z,18.90
2019-06-15T04:52:47.451Z,19.10
2019-06-15T04:55:15.984Z,19.20
2019-06-15T04:57:44.520Z,19.40
2019-06-15T05:00:13.134Z,19.50
2019-06-15T05:02:41.664Z,19.50
2019-06-15T05:05:10.271Z,19.50
2019-06-15T05:07:38.792Z,19.60
2019-06-15T05:10:07.375Z,19.70
2019-06-15T05:12:35.984Z,19.70
2019-06-15T05:15:06.042Z,19.80
2019-06-15T05:17:34.502Z,19.90
2019-06-15T05:20:03.704Z,19.90
2019-06-15T05:22:32.209Z,20.10
2019-06-15T05:25:00.691Z,20.20
2019-06-15T05:27:29.164Z,20.30
2019-06-15T05:29:57.612Z,20.50
2019-06-15T05:32:26.152Z,20.50
2019-06-15T05:34:54.600Z,20.60
2019-06-15T05:37:23.056Z,20.60
2019-06-15T05:39:51.905Z,20.50
2019-06-15T05:42:20.409Z,20.50
2019-06-15T05:44:48.871Z,20.50
2019-06-15T05:47:17.388Z,20.60
2019-06-15T05:49:45.854Z,20.70
2019-06-15T05:52:14.306Z,20.70
2019-06-15T05:54:42.835Z,20.90
2019-06-15T05:57:21.187Z,21.20
2019-06-15T05:59:41.479Z,21.50
2019-06-15T06:02:10.030Z,21.70
2019-06-15T06:04:38.586Z,22.00
2019-06-15T06:07:07.062Z,22.40
2019-06-15T06:09:35.524Z,22.90
2019-06-15T06:12:04.319Z,23.10
2019-06-15T06:14:32.783Z,23.40
2019-06-15T06:17:01.231Z,23.40
2019-06-15T06:19:29.695Z,23.40
2019-06-15T06:21:58.414Z,23.30
2019-06-15T06:24:27.055Z,23.90
2019-06-15T06:26:55.598Z,23.90
2019-06-15T06:29:24.144Z,23.60
2019-06-15T06:31:52.688Z,23.50
2019-06-15T06:34:21.142Z,23.60
2019-06-15T06:36:49.681Z,23.40
2019-06-15T06:39:18.199Z,23.30
2019-06-15T06:41:46.665Z,23.30
2019-06-15T06:44:15.136Z,23.20
2019-06-15T06:46:43.592Z,23.20
2019-06-15T06:49:12.055Z,23.30
2019-06-15T06:51:40.516Z,23.40
2019-06-15T06:54:09.036Z,23.50
2019-06-15T06:56:37.502Z,23.40
2019-06-15T06:59:06.023Z,23.50
2019-06-15T07:01:34.559Z,23.60
2019-06-15T07:04:03.024Z,23.80
2019-06-15T07:06:31.473Z,23.90
2019-06-15T07:08:59.942Z,24.00
2019-06-15T07:11:28.383Z,24.30
2019-06-15T07:13:56.874Z,24.60
2019-06-15T07:16:25.389Z,24.80
2019-06-15T07:18:53.907Z,24.90
2019-06-15T07:21:22.453Z,25.30
2019-06-15T07:23:50.919Z,25.30
2019-06-15T07:26:19.367Z,25.10
2019-06-15T07:28:47.920Z,25.00
2019-06-15T07:31:16.431Z,25.30
2019-06-15T07:33:44.899Z,25.00
2019-06-15T07:36:13.366Z,25.00
2019-06-15T07:38:42.249Z,25.10
2019-06-15T07:41:10.694Z,25.10
2019-06-15T07:43:39.165Z,24.90
2019-06-15T07:46:07.623Z,25.00
2019-06-15T07:48:36.091Z,24.90
2019-06-15T07:51:04.629Z,25.00
2019-06-15T07:53:33.080Z,24.90
2019-06-15T07:56:01.548Z,24.90
2019-06-15T07:58:29.999Z,25.00
2019-06-15T08:00:58.539Z,24.90
2019-06-15T08:03:26.991Z,25.00
2019-06-15T08:05:55.464Z,24.90
2019-06-15T08:08:24.199Z,25.00
2019-06-15T08:10:52.707Z,25.10
2019-06-15T08:13:21.248Z,25.20
2019-06-15T08:15:49.718Z,25.40
2019-06-15T08:18:18.240Z,25.60
2019-06-15T08:20:46.775Z,25.40
2019-06-15T08:23:15.307Z,25.80
2019-06-15T08:25:43.759Z,26.40
2019-06-15T08:28:12.235Z,26.80
2019-06-15T08:30:44.540Z,26.80
2019-06-15T08:33:13.410Z,26.80
2019-06-15T08:35:41.914Z,26.80
2019-06-15T08:38:10.368Z,27.20
2019-06-15T08:40:38.841Z,27.50
2019-06-15T08:43:07.358Z,27.40
2019-06-15T08:45:35.824Z,27.80
2019-06-15T08:48:04.525Z,27.80
2019-06-15T08:50:33.124Z,28.10
2019-06-15T08:53:01.602Z,27.80
2019-06-15T08:55:30.114Z,27.90
2019-06-15T08:57:58.583Z,28.20
2019-06-15T09:00:27.776Z,28.40
2019-06-15T09:02:56.249Z,28.60
2019-06-15T09:05:24.707Z,28.30
2019-06-15T09:07:53.238Z,28.10
2019-06-15T09:10:21.831Z,28.50
2019-06-15T09:12:50.282Z,28.30
2019-06-15T09:15:21.830Z,28.30
2019-06-15T09:17:50.280Z,28.40
2019-06-15T09:20:18.747Z,28.60
2019-06-15T09:22:47.194Z,28.70
2019-06-15T09:25:15.899Z,28.60
2019-06-15T09:27:45.800Z,28.50
2019-06-15T09:30:14.387Z,28.40
2019-06-15T09:32:42.857Z,28.40
2019-06-15T09:35:12.259Z,28.60
2019-06-15T09:37:42.326Z,28.50
2019-06-15T09:40:10.922Z,28.50
2019-06-15T09:42:39.459Z,28.50
2019-06-15T09:45:08.861Z,28.30
2019-06-15T09:47:37.393Z,28.30
2019-06-15T09:50:06.228Z,28.40
2019-06-15T09:52:34.743Z,28.30
2019-06-15T09:55:04.241Z,28.10
2019-06-15T09:57:32.685Z,28.00
2019-06-15T10:00:01.203Z,27.90
2019-06-15T10:02:29.767Z,27.90
2019-06-15T10:04:58.315Z,27.90
2019-06-15T10:07:26.835Z,27.80
2019-06-15T10:09:55.279Z,27.90
2019-06-15T10:12:23.749Z,27.90
2019-06-15T10:14:52.283Z,27.80
2019-06-15T10:17:20.824Z,27.80
2019-06-15T10:19:49.309Z,27.80
2019-06-15T10:22:17.902Z,27.80
2019-06-15T10:24:46.358Z,27.70
2019-06-15T10:27:14.837Z,27.50
2019-06-15T10:29:43.441Z,27.70
2019-06-15T10:32:12.040Z,27.80
2019-06-15T10:34:40.520Z,27.90
2019-06-15T10:37:09.035Z,28.00
2019-06-15T10:39:37.504Z,28.10
2019-06-15T10:42:06.064Z,28.10
2019-06-15T10:44:34.781Z,28.10
2019-06-15T10:47:03.359Z,28.10
2019-06-15T10:49:31.893Z,28.10
2019-06-15T10:52:00.415Z,28.30
2019-06-15T10:54:28.899Z,28.30
2019-06-15T10:56:57.358Z,28.40
2019-06-15T10:59:25.808Z,28.40
2019-06-15T11:01:54.343Z,28.40
2019-06-15T11:04:22.795Z,28.40
2019-06-15T11:06:51.407Z,28.40
2019-06-15T11:09:19.999Z,28.40
2019-06-15T11:11:48.677Z,28.30
2019-06-15T11:14:17.135Z,28.20
2019-06-15T11:16:46.105Z,28.20
2019-06-15T11:19:15.376Z,28.00
2019-06-15T11:21:43.982Z,27.80
2019-06-15T11:24:12.450Z,27.50
2019-06-15T11:26:42.097Z,27.10
2019-06-15T11:29:10.815Z,27.10
2019-06-15T11:31:39.338Z,26.90
2019-06-15T11:34:07.973Z,26.80
2019-06-15T11:36:36.559Z,26.90
2019-06-15T11:39:07.059Z,26.90
2019-06-15T11:41:35.532Z,26.90
2019-06-15T11:44:04.324Z,26.70
2019-06-15T11:46:32.926Z,26.60
2019-06-15T11:49:01.533Z,26.80
2019-06-15T11:51:30.128Z,27.00
2019-06-15T11:53:58.655Z,27.30
2019-06-15T11:56:27.197Z,27.40
2019-06-15T11:58:55.734Z,27.50
2019-06-15T12:01:24.189Z,27.50
2019-06-15T12:03:52.655Z,27.40
2019-06-15T12:06:21.125Z,27.40
2019-06-15T12:08:49.656Z,27.60
2019-06-15T12:11:18.208Z,27.50
2019-06-15T12:13:46.718Z,27.40
2019-06-15T12:16:15.258Z,27.50
2019-06-15T12:18:43.708Z,27.50
2019-06-15T12:21:12.244Z,27.30
2019-06-15T12:23:40.771Z,27.20
2019-06-15T12:26:09.242Z,27.20
2019-06-15T12:28:37.779Z,27.30
2019-06-15T12:31:06.321Z,27.40
2019-06-15T12:33:34.783Z,27.30
2019-06-15T12:36:15.829Z,27.30
2019-06-15T12:38:33.844Z,27.20
2019-06-15T12:41:02.297Z,27.00
2019-06-15T12:43:30.759Z,27.20
2019-06-15T12:45:59.203Z,27.30
2019-06-15T12:48:27.737Z,27.50
2019-06-15T12:50:56.190Z,27.70
2019-06-15T12:53:24.665Z,28.10
2019-06-15T12:55:53.128Z,28.20
2019-06-15T12:58:21.591Z,28.40
2019-06-15T13:01:02.203Z,28.50
2019-06-15T13:03:20.315Z,28.40
2019-06-15T13:05:48.841Z,28.50
2019-06-15T13:08:17.375Z,28.40
2019-06-15T13:10:45.972Z,28.40
2019-06-15T13:13:14.578Z,28.40
2019-06-15T13:15:43.036Z,28.40
2019-06-15T13:18:11.516Z,28.50
2019-06-15T13:20:40.145Z,28.60
2019-06-15T13:23:08.633Z,28.50
2019-06-15T13:25:37.169Z,28.70
2019-06-15T13:28:05.618Z,28.80
2019-06-15T13:30:34.171Z,28.70
2019-06-15T13:33:02.677Z,28.90
2019-06-15T13:35:31.195Z,29.00
2019-06-15T13:37:59.699Z,29.20
2019-06-15T13:40:28.159Z,29.00
2019-06-15T13:42:56.622Z,29.10
2019-06-15T13:45:25.396Z,29.10
2019-06-15T13:47:53.867Z,29.30
2019-06-15T13:50:22.325Z,29.30
2019-06-15T13:52:50.943Z,29.10
2019-06-15T13:55:21.848Z,29.40
2019-06-15T13:57:49.735Z,29.50
2019-06-15T14:00:18.444Z,29.50
2019-06-15T14:02:46.964Z,29.60
2019-06-15T14:05:15.700Z,29.60
2019-06-15T14:07:44.234Z,29.40
2019-06-15T14:10:12.949Z,29.50
2019-06-15T14:12:41.476Z,29.90
2019-06-15T14:15:10.701Z,30.00
2019-06-15T14:17:40.154Z,30.20
2019-06-15T14:20:09.351Z,30.20
2019-06-15T14:22:37.883Z,29.90
2019-06-15T14:25:07.951Z,29.90
2019-06-15T14:27:36.543Z,30.00
2019-06-15T14:30:09.316Z,29.70
2019-06-15T14:32:37.815Z,29.50
2019-06-15T14:35:07.300Z,29.30
2019-06-15T14:37:35.827Z,29.20
2019-06-15T14:40:07.859Z,29.10
2019-06-15T14:42:36.448Z,29.10
2019-06-15T14:45:07.061Z,29.30
2019-06-15T14:47:35.654Z,29.40
2019-06-15T14:50:05.563Z,29.80
2019-06-15T14:52:34.115Z,30.10
2019-06-15T14:55:02.778Z,30.20
2019-06-15T14:57:31.255Z,30.10
2019-06-15T15:00:04.746Z,30.10
2019-06-15T15:02:29.968Z,30.10
2019-06-15T15:04:58.580Z,30.00
2019-06-15T15:07:27.023Z,29.60
2019-06-15T15:09:56.737Z,29.30
2019-06-15T15:12:26.552Z,29.50
2019-06-15T15:14:56.479Z,29.40
2019-06-15T15:17:26.810Z,29.40
2019-06-15T15:19:57.394Z,29.40
2019-06-15T15:22:26.838Z,29.80
2019-06-15T15:24:56.245Z,30.10
2019-06-15T15:27:26.991Z,29.90
2019-06-15T15:29:57.086Z,29.90
2019-06-15T15:32:31.200Z,29.70
2019-06-15T15:34:56.179Z,29.60
2019-06-15T15:37:26.755Z,29.60
2019-06-15T15:39:56.584Z,29.80
2019-06-15T15:42:26.677Z,29.70
2019-06-15T15:44:56.507Z,29.60
2019-06-15T15:47:27.285Z,29.50
2019-06-15T15:49:57.686Z,29.50
2019-06-15T15:52:26.915Z,29.40
2019-06-15T15:54:56.497Z,29.60
2019-06-15T15:57:26.663Z,29.90
2019-06-15T15:59:56.341Z,29.90
2019-06-15T16:02:35.713Z,30.00
2019-06-15T16:04:57.503Z,30.00
2019-06-15T16:07:27.682Z,30.00
2019-06-15T16:09:56.025Z,29.80
2019-06-15T16:12:24.549Z,30.00
2019-06-15T16:14:53.093Z,30.40
2019-06-15T16:17:21.548Z,31.00
2019-06-15T16:19:50.016Z,31.70
2019-06-15T16:22:18.482Z,31.80
2019-06-15T16:24:48.006Z,32.00
2019-06-15T16:27:16.614Z,32.40
2019-06-15T16:29:46.991Z,32.70
2019-06-15T16:32:16.130Z,32.60
2019-06-15T16:34:47.317Z,33.30
2019-06-15T16:37:16.921Z,32.90
2019-06-15T16:39:46.744Z,32.80
2019-06-15T16:42:15.442Z,32.50
2019-06-15T16:44:43.976Z,32.70
2019-06-15T16:47:12.495Z,32.80
2019-06-15T16:49:42.031Z,32.70
2019-06-15T16:52:10.488Z,32.70
2019-06-15T16:54:39.005Z,32.60
2019-06-15T16:57:07.472Z,32.80
2019-06-15T16:59:36.497Z,32.90
2019-06-15T17:02:06.428Z,32.60
2019-06-15T17:04:36.419Z,32.70
2019-06-15T17:07:07.069Z,32.90
2019-06-15T17:09:36.213Z,32.40
2019-06-15T17:12:06.529Z,32.00
2019-06-15T17:14:36.463Z,31.60
2019-06-15T17:17:05.502Z,31.30
2019-06-15T17:19:36.131Z,31.10
2019-06-15T17:22:16.644Z,30.70
2019-06-15T17:24:36.808Z,30.30
2019-06-15T17:27:06.132Z,30.00
2019-06-15T17:29:34.828Z,30.00
2019-06-15T17:32:03.295Z,29.90
2019-06-15T17:34:31.856Z,29.70
2019-06-15T17:37:00.374Z,30.00
2019-06-15T17:39:29.616Z,29.60
2019-06-15T17:41:58.477Z,29.40
2019-06-15T17:44:27.022Z,29.50
2019-06-15T17:46:56.597Z,29.10
2019-06-15T17:49:27.108Z,28.90
2019-06-15T17:51:55.852Z,28.60
2019-06-15T17:54:24.319Z,28.40
2019-06-15T17:56:52.844Z,28.00
2019-06-15T17:59:22.368Z,27.30
2019-06-15T18:01:51.103Z,26.80
2019-06-15T18:04:19.578Z,26.80
2019-06-15T18:06:48.120Z,26.80
2019-06-15T18:09:17.173Z,26.70
2019-06-15T18:11:46.440Z,26.50
2019-06-15T18:14:17.532Z,26.10
2019-06-15T18:16:47.078Z,25.80
2019-06-15T18:19:17.076Z,25.40
2019-06-15T18:21:46.807Z,25.20
2019-06-15T18:24:16.262Z,25.30
2019-06-15T18:26:47.358Z,25.30
2019-06-15T18:29:16.769Z,25.20
2019-06-15T18:31:45.709Z,25.10
2019-06-15T18:34:16.768Z,24.80
2019-06-15T18:36:44.455Z,24.70
2019-06-15T18:39:13.103Z,24.70
2019-06-15T18:41:42.545Z,24.60
2019-06-15T18:44:11.084Z,24.50
2019-06-15T18:46:39.609Z,24.40
2019-06-15T18:49:08.144Z,24.30
2019-06-15T18:51:36.592Z,24.10
2019-06-15T18:54:06.766Z,24.10
2019-06-15T18:56:36.344Z,24.10
2019-06-15T18:59:07.605Z,24.00
2019-06-15T19:01:37.528Z,24.00
2019-06-15T19:04:06.764Z,24.00
2019-06-15T19:06:37.022Z,24.00
2019-06-15T19:09:08.762Z,23.90
2019-06-15T19:11:37.344Z,23.80
2019-06-15T19:14:06.908Z,23.70
2019-06-15T19:16:37.201Z,23.50
2019-06-15T19:19:09.036Z,23.40
2019-06-15T19:21:36.138Z,23.40
2019-06-15T19:24:07.071Z,23.40
2019-06-15T19:26:37.414Z,23.20
2019-06-15T19:29:06.520Z,23.10
2019-06-15T19:31:36.756Z,23.00
2019-06-15T19:34:06.818Z,22.90
2019-06-15T19:36:36.650Z,22.90
2019-06-15T19:39:07.556Z,22.90
2019-06-15T19:41:38.087Z,22.90
2019-06-15T19:44:26.821Z,22.80
2019-06-15T19:46:56.865Z,22.70
2019-06-15T19:49:25.926Z,22.60
2019-06-15T19:51:56.472Z,22.60
2019-06-15T19:54:26.357Z,22.50
2019-06-15T19:56:56.481Z,22.40
2019-06-15T19:59:26.303Z,22.30
2019-06-15T20:01:54.907Z,22.30
2019-06-15T20:04:23.388Z,22.30
2019-06-15T20:06:51.996Z,22.20
2019-06-15T20:09:20.459Z,22.20
2019-06-15T20:11:48.972Z,22.20
2019-06-15T20:14:17.435Z,22.10
2019-06-15T20:16:47.040Z,22.00
2019-06-15T20:19:17.462Z,22.00
2019-06-15T20:21:46.367Z,21.90
2019-06-15T20:24:16.202Z,21.70
2019-06-15T20:26:45.157Z,21.60
2019-06-15T20:29:13.607Z,21.50
2019-06-15T20:31:42.071Z,21.60
2019-06-15T20:34:10.523Z,21.60
2019-06-15T20:36:39.136Z,21.60
2019-06-15T20:39:08.466Z,21.50
2019-06-15T20:41:37.119Z,21.50
2019-06-15T20:44:05.695Z,21.50
2019-06-15T20:46:37.040Z,21.50
2019-06-15T20:49:06.504Z,21.50
2019-06-15T20:51:37.162Z,21.40
2019-06-15T20:54:07.016Z,21.20
2019-06-15T20:56:37.339Z,21.00
2019-06-15T20:59:06.443Z,20.90
2019-06-15T21:01:36.857Z,20.70
2019-06-15T21:04:07.269Z,20.70
2019-06-15T21:06:37.094Z,20.60
2019-06-15T21:09:07.891Z,20.60
2019-06-15T21:11:36.427Z,20.70
2019-06-15T21:14:05.446Z,20.70
2019-06-15T21:16:36.846Z,20.70
2019-06-15T21:19:06.514Z,20.70
2019-06-15T21:21:37.211Z,20.80
2019-06-15T21:24:06.426Z,20.90
2019-06-15T21:26:35.248Z,20.80
2019-06-15T21:29:06.396Z,20.60
2019-06-15T21:31:33.977Z,20.60
2019-06-15T21:34:06.789Z,20.40
2019-06-15T21:36:37.368Z,20.50
2019-06-15T21:39:06.867Z,20.40
2019-06-15T21:41:36.734Z,20.30
2019-06-15T21:44:06.298Z,20.30
2019-06-15T21:46:36.223Z,20.30
2019-06-15T21:49:07.158Z,20.30
2019-06-15T21:51:36.669Z,20.30
2019-06-15T21:54:06.911Z,20.30
2019-06-15T21:56:36.762Z,20.30
2019-06-15T21:59:07.486Z,20.30
2019-06-15T22:01:37.645Z,20.10
2019-06-15T22:04:07.070Z,20.00
2019-06-15T22:06:37.290Z,20.00
2019-06-15T22:09:09.045Z,20.00
2019-06-15T22:11:37.571Z,20.00
2019-06-15T22:14:06.399Z,20.00
2019-06-15T22:16:35.150Z,20.00
2019-06-15T22:19:05.935Z,19.90
2019-06-15T22:21:36.036Z,19.90
2019-06-15T22:24:06.839Z,19.80
2019-06-15T22:26:35.589Z,19.80
2019-06-15T22:29:07.151Z,19.70
2019-06-15T22:31:34.745Z,19.70
2019-06-15T22:34:03.316Z,19.60
2019-06-15T22:36:31.895Z,19.60
2019-06-15T22:39:00.382Z,19.60
2019-06-15T22:41:28.967Z,19.70
2019-06-15T22:43:57.769Z,19.70
2019-06-15T22:46:26.418Z,19.70
2019-06-15T22:48:56.212Z,19.60
2019-06-15T22:51:27.276Z,19.50
2019-06-15T22:53:56.632Z,19.40
2019-06-15T22:56:26.434Z,19.30
2019-06-15T22:58:57.067Z,19.20
2019-06-15T23:01:26.087Z,19.10
2019-06-15T23:03:56.960Z,19.20
2019-06-15T23:06:36.733Z,19.10
2019-06-15T23:08:56.535Z,19.10
2019-06-15T23:11:26.707Z,19.10
2019-06-15T23:13:57.512Z,19.20
2019-06-15T23:16:27.176Z,19.20
2019-06-15T23:18:57.033Z,19.10
2019-06-15T23:21:26.886Z,19.10
2019-06-15T23:23:56.223Z,19.10
2019-06-15T23:26:24.985Z,19.10
2019-06-15T23:28:53.459Z,19.10
2019-06-15T23:31:21.995Z,19.10
2019-06-15T23:33:50.459Z,19.00
2019-06-15T23:36:20.553Z,19.00
2019-06-15T23:38:49.029Z,19.00
2019-06-15T23:41:17.580Z,19.20
2019-06-15T23:43:46.489Z,19.20
2019-06-15T23:46:16.058Z,19.20
2019-06-15T23:48:46.850Z,19.30
2019-06-15T23:51:17.004Z,19.30
2019-06-15T23:53:46.255Z,19.20
2019-06-15T23:56:14.896Z,19.20
2019-06-15T23:58:43.426Z,19.20
